Funston, Georgia
Current Conditions -  °F | °C
As of 8:55 AM on Monday 24 Nov 2014 (Local Time) from KMGR Reporting Station
Moderate Rain Moderate Rain  
Wind Chill: 70°   Ceiling: 2500
Heat Index: 70°   Visibility: 5mi
Dew Point: 68°   Wind: 7mph
Humidity: 94%   Direction: 270°W
Pressure: 29.87"   Gusts: NA
Location:  31.2°N, 83.87°W
Report Text: KMGR 241355Z AUTO 27006KT 5SM RA SCT010 BKN025 OVC032 21/20 A2987 RMK AO2 LTG DSNT E
Loading
Personal Weather Stations






























Interactive Weather Map New forecast layout! Learn more

10-Day Weather Forecast

Advertisements
Track Severe Weather on mobile